sensor_id;sensor_type;location;lat;lon;timestamp;P1;durP1;ratioP1;P2;durP2;ratioP2
24901;SDS011;31328;51.402;0.016;2023-05-07T00:00:53;18.15;;;8.82;;
24901;SDS011;31328;51.402;0.016;2023-05-07T00:03:20;16.10;;;8.60;;
24901;SDS011;31328;51.402;0.016;2023-05-07T00:05:47;14.73;;;9.30;;
24901;SDS011;31328;51.402;0.016;2023-05-07T00:08:13;11.60;;;6.68;;
24901;SDS011;31328;51.402;0.016;2023-05-07T00:10:40;13.07;;;6.13;;
24901;SDS011;31328;51.402;0.016;2023-05-07T00:13:07;8.20;;;5.60;;
24901;SDS011;31328;51.402;0.016;2023-05-07T00:15:33;7.45;;;4.95;;
24901;SDS011;31328;51.402;0.016;2023-05-07T00:17:59;6.80;;;4.65;;
24901;SDS011;31328;51.402;0.016;2023-05-07T00:20:26;7.63;;;3.92;;
24901;SDS011;31328;51.402;0.016;2023-05-07T00:22:52;8.38;;;3.80;;
24901;SDS011;31328;51.402;0.016;2023-05-07T00:25:18;4.80;;;3.55;;
24901;SDS011;31328;51.402;0.016;2023-05-07T00:27:45;6.47;;;3.72;;
24901;SDS011;31328;51.402;0.016;2023-05-07T00:30:12;7.05;;;4.45;;
24901;SDS011;31328;51.402;0.016;2023-05-07T00:32:39;7.45;;;4.03;;
24901;SDS011;31328;51.402;0.016;2023-05-07T00:35:05;6.30;;;3.47;;
24901;SDS011;31328;51.402;0.016;2023-05-07T00:37:32;5.57;;;3.78;;
24901;SDS011;31328;51.402;0.016;2023-05-07T00:39:59;6.22;;;3.70;;
24901;SDS011;31328;51.402;0.016;2023-05-07T00:42:25;6.30;;;3.85;;
24901;SDS011;31328;51.402;0.016;2023-05-07T00:44:53;5.28;;;3.72;;
24901;SDS011;31328;51.402;0.016;2023-05-07T00:47:20;6.72;;;4.20;;
24901;SDS011;31328;51.402;0.016;2023-05-07T00:49:47;6.78;;;4.15;;
24901;SDS011;31328;51.402;0.016;2023-05-07T00:52:14;5.80;;;4.28;;
24901;SDS011;31328;51.402;0.016;2023-05-07T00:54:42;7.72;;;4.30;;
24901;SDS011;31328;51.402;0.016;2023-05-07T00:57:09;6.78;;;4.75;;
24901;SDS011;31328;51.402;0.016;2023-05-07T00:59:37;6.68;;;4.57;;
24901;SDS011;31328;51.402;0.016;2023-05-07T01:02:03;7.75;;;5.07;;
24901;SDS011;31328;51.402;0.016;2023-05-07T01:04:30;7.97;;;4.38;;
24901;SDS011;31328;51.402;0.016;2023-05-07T01:06:56;6.22;;;4.25;;
24901;SDS011;31328;51.402;0.016;2023-05-07T01:09:24;6.97;;;3.78;;
24901;SDS011;31328;51.402;0.016;2023-05-07T01:11:51;5.22;;;3.88;;
24901;SDS011;31328;51.402;0.016;2023-05-07T01:14:18;5.63;;;3.70;;
24901;SDS011;31328;51.402;0.016;2023-05-07T01:16:46;4.88;;;3.58;;
24901;SDS011;31328;51.402;0.016;2023-05-07T01:19:14;4.78;;;3.20;;
24901;SDS011;31328;51.402;0.016;2023-05-07T01:21:46;6.30;;;4.13;;
24901;SDS011;31328;51.402;0.016;2023-05-07T01:24:15;4.18;;;3.30;;
24901;SDS011;31328;51.402;0.016;2023-05-07T01:26:42;5.28;;;3.35;;
24901;SDS011;31328;51.402;0.016;2023-05-07T01:29:12;6.82;;;3.95;;
24901;SDS011;31328;51.402;0.016;2023-05-07T01:31:39;4.72;;;3.20;;
24901;SDS011;31328;51.402;0.016;2023-05-07T01:34:08;3.92;;;3.03;;
24901;SDS011;31328;51.402;0.016;2023-05-07T01:36:37;4.45;;;3.25;;
24901;SDS011;31328;51.402;0.016;2023-05-07T01:39:06;4.72;;;3.17;;
24901;SDS011;31328;51.402;0.016;2023-05-07T01:41:33;6.43;;;3.13;;
24901;SDS011;31328;51.402;0.016;2023-05-07T01:44:01;4.55;;;3.33;;
24901;SDS011;31328;51.402;0.016;2023-05-07T01:46:30;6.30;;;3.65;;
24901;SDS011;31328;51.402;0.016;2023-05-07T01:48:58;6.20;;;4.10;;
24901;SDS011;31328;51.402;0.016;2023-05-07T01:51:25;5.70;;;3.50;;
24901;SDS011;31328;51.402;0.016;2023-05-07T01:53:52;4.38;;;3.47;;
24901;SDS011;31328;51.402;0.016;2023-05-07T01:56:20;5.18;;;3.22;;
24901;SDS011;31328;51.402;0.016;2023-05-07T01:58:47;5.63;;;3.13;;
24901;SDS011;31328;51.402;0.016;2023-05-07T02:01:13;4.13;;;3.40;;
24901;SDS011;31328;51.402;0.016;2023-05-07T02:03:41;3.53;;;3.00;;
24901;SDS011;31328;51.402;0.016;2023-05-07T02:06:14;5.10;;;2.90;;
24901;SDS011;31328;51.402;0.016;2023-05-07T02:08:41;4.07;;;3.17;;
24901;SDS011;31328;51.402;0.016;2023-05-07T02:11:08;5.35;;;3.92;;
24901;SDS011;31328;51.402;0.016;2023-05-07T02:13:36;3.70;;;3.05;;
24901;SDS011;31328;51.402;0.016;2023-05-07T02:16:02;5.70;;;3.47;;
24901;SDS011;31328;51.402;0.016;2023-05-07T02:18:29;4.50;;;3.47;;
24901;SDS011;31328;51.402;0.016;2023-05-07T02:20:55;4.97;;;3.65;;
24901;SDS011;31328;51.402;0.016;2023-05-07T02:23:22;4.38;;;3.42;;
24901;SDS011;31328;51.402;0.016;2023-05-07T02:25:48;5.80;;;4.20;;
24901;SDS011;31328;51.402;0.016;2023-05-07T02:28:15;4.50;;;3.45;;
24901;SDS011;31328;51.402;0.016;2023-05-07T02:30:48;5.00;;;3.45;;
24901;SDS011;31328;51.402;0.016;2023-05-07T02:33:15;5.78;;;3.65;;
24901;SDS011;31328;51.402;0.016;2023-05-07T02:35:41;8.85;;;4.70;;
24901;SDS011;31328;51.402;0.016;2023-05-07T02:38:09;8.13;;;4.70;;
24901;SDS011;31328;51.402;0.016;2023-05-07T02:40:37;5.55;;;4.22;;
24901;SDS011;31328;51.402;0.016;2023-05-07T02:43:06;8.40;;;4.93;;
24901;SDS011;31328;51.402;0.016;2023-05-07T02:45:34;7.72;;;4.78;;
24901;SDS011;31328;51.402;0.016;2023-05-07T02:48:04;5.82;;;4.20;;
24901;SDS011;31328;51.402;0.016;2023-05-07T02:50:32;7.03;;;5.03;;
24901;SDS011;31328;51.402;0.016;2023-05-07T02:52:58;6.45;;;5.00;;
24901;SDS011;31328;51.402;0.016;2023-05-07T02:55:25;8.70;;;5.57;;
24901;SDS011;31328;51.402;0.016;2023-05-07T02:57:51;7.47;;;5.00;;
24901;SDS011;31328;51.402;0.016;2023-05-07T03:00:18;9.32;;;5.82;;
24901;SDS011;31328;51.402;0.016;2023-05-07T03:02:53;7.85;;;5.53;;
24901;SDS011;31328;51.402;0.016;2023-05-07T03:05:20;6.45;;;4.55;;
24901;SDS011;31328;51.402;0.016;2023-05-07T03:07:46;8.27;;;6.38;;
24901;SDS011;31328;51.402;0.016;2023-05-07T03:10:14;8.50;;;5.35;;
24901;SDS011;31328;51.402;0.016;2023-05-07T03:12:41;8.55;;;5.45;;
24901;SDS011;31328;51.402;0.016;2023-05-07T03:15:10;8.48;;;5.82;;
24901;SDS011;31328;51.402;0.016;2023-05-07T03:17:38;6.72;;;5.32;;
24901;SDS011;31328;51.402;0.016;2023-05-07T03:20:05;7.72;;;5.15;;
24901;SDS011;31328;51.402;0.016;2023-05-07T03:22:33;8.38;;;6.10;;
24901;SDS011;31328;51.402;0.016;2023-05-07T03:24:59;9.18;;;6.50;;
24901;SDS011;31328;51.402;0.016;2023-05-07T03:27:26;9.55;;;6.07;;
24901;SDS011;31328;51.402;0.016;2023-05-07T03:29:53;8.82;;;5.57;;
24901;SDS011;31328;51.402;0.016;2023-05-07T03:32:20;8.70;;;5.22;;
24901;SDS011;31328;51.402;0.016;2023-05-07T03:34:47;7.00;;;5.00;;
24901;SDS011;31328;51.402;0.016;2023-05-07T03:37:14;8.32;;;6.13;;
24901;SDS011;31328;51.402;0.016;2023-05-07T03:39:41;8.50;;;6.07;;
24901;SDS011;31328;51.402;0.016;2023-05-07T03:42:08;9.27;;;6.35;;
24901;SDS011;31328;51.402;0.016;2023-05-07T03:44:35;8.38;;;6.20;;
24901;SDS011;31328;51.402;0.016;2023-05-07T03:47:02;10.27;;;6.03;;
24901;SDS011;31328;51.402;0.016;2023-05-07T03:49:30;8.73;;;6.22;;
24901;SDS011;31328;51.402;0.016;2023-05-07T03:51:56;8.68;;;6.28;;
24901;SDS011;31328;51.402;0.016;2023-05-07T03:54:23;7.97;;;6.35;;
24901;SDS011;31328;51.402;0.016;2023-05-07T03:56:49;8.10;;;6.03;;
24901;SDS011;31328;51.402;0.016;2023-05-07T03:59:16;11.57;;;6.50;;
24901;SDS011;31328;51.402;0.016;2023-05-07T04:01:44;7.85;;;5.75;;
24901;SDS011;31328;51.402;0.016;2023-05-07T04:04:15;8.88;;;5.90;;
24901;SDS011;31328;51.402;0.016;2023-05-07T04:06:42;8.23;;;5.68;;
24901;SDS011;31328;51.402;0.016;2023-05-07T04:09:08;10.38;;;6.40;;
24901;SDS011;31328;51.402;0.016;2023-05-07T04:11:37;9.35;;;6.25;;
24901;SDS011;31328;51.402;0.016;2023-05-07T04:14:08;8.80;;;6.18;;
24901;SDS011;31328;51.402;0.016;2023-05-07T04:16:35;10.75;;;7.22;;
24901;SDS011;31328;51.402;0.016;2023-05-07T04:19:02;10.25;;;6.88;;
24901;SDS011;31328;51.402;0.016;2023-05-07T04:21:28;9.05;;;5.85;;
24901;SDS011;31328;51.402;0.016;2023-05-07T04:23:55;9.63;;;6.60;;
24901;SDS011;31328;51.402;0.016;2023-05-07T04:26:22;8.55;;;6.07;;
24901;SDS011;31328;51.402;0.016;2023-05-07T04:28:50;8.18;;;6.22;;
24901;SDS011;31328;51.402;0.016;2023-05-07T04:31:17;10.30;;;6.63;;
24901;SDS011;31328;51.402;0.016;2023-05-07T04:33:47;9.07;;;6.22;;
24901;SDS011;31328;51.402;0.016;2023-05-07T04:36:14;11.23;;;6.72;;
24901;SDS011;31328;51.402;0.016;2023-05-07T04:38:47;11.30;;;7.10;;
24901;SDS011;31328;51.402;0.016;2023-05-07T04:41:15;8.65;;;6.40;;
24901;SDS011;31328;51.402;0.016;2023-05-07T04:43:43;10.85;;;6.55;;
24901;SDS011;31328;51.402;0.016;2023-05-07T04:46:11;8.50;;;6.15;;
24901;SDS011;31328;51.402;0.016;2023-05-07T04:48:37;10.52;;;6.55;;
24901;SDS011;31328;51.402;0.016;2023-05-07T04:51:05;9.63;;;5.78;;
24901;SDS011;31328;51.402;0.016;2023-05-07T04:53:33;10.07;;;6.68;;
24901;SDS011;31328;51.402;0.016;2023-05-07T04:55:59;8.65;;;6.13;;
24901;SDS011;31328;51.402;0.016;2023-05-07T04:58:32;8.77;;;5.90;;
24901;SDS011;31328;51.402;0.016;2023-05-07T05:00:58;8.77;;;6.35;;
24901;SDS011;31328;51.402;0.016;2023-05-07T05:03:25;9.00;;;6.60;;
24901;SDS011;31328;51.402;0.016;2023-05-07T05:05:52;8.93;;;6.57;;
24901;SDS011;31328;51.402;0.016;2023-05-07T05:08:20;9.20;;;6.53;;
24901;SDS011;31328;51.402;0.016;2023-05-07T05:10:47;10.00;;;6.80;;
24901;SDS011;31328;51.402;0.016;2023-05-07T05:13:15;10.68;;;6.95;;
24901;SDS011;31328;51.402;0.016;2023-05-07T05:15:42;12.68;;;8.40;;
24901;SDS011;31328;51.402;0.016;2023-05-07T05:18:09;10.45;;;7.90;;
24901;SDS011;31328;51.402;0.016;2023-05-07T05:20:38;10.57;;;6.78;;
24901;SDS011;31328;51.402;0.016;2023-05-07T05:23:04;10.10;;;7.18;;
24901;SDS011;31328;51.402;0.016;2023-05-07T05:25:32;8.52;;;6.50;;
24901;SDS011;31328;51.402;0.016;2023-05-07T05:28:00;11.43;;;6.85;;
24901;SDS011;31328;51.402;0.016;2023-05-07T05:30:27;10.93;;;7.53;;
24901;SDS011;31328;51.402;0.016;2023-05-07T05:32:53;11.45;;;7.03;;
24901;SDS011;31328;51.402;0.016;2023-05-07T05:35:20;10.93;;;7.07;;
24901;SDS011;31328;51.402;0.016;2023-05-07T05:37:46;13.77;;;8.25;;
24901;SDS011;31328;51.402;0.016;2023-05-07T05:40:15;10.00;;;7.15;;
24901;SDS011;31328;51.402;0.016;2023-05-07T05:42:41;11.95;;;7.38;;
24901;SDS011;31328;51.402;0.016;2023-05-07T05:45:09;13.20;;;7.78;;
24901;SDS011;31328;51.402;0.016;2023-05-07T05:47:37;11.80;;;8.32;;
24901;SDS011;31328;51.402;0.016;2023-05-07T05:50:03;11.65;;;7.03;;
24901;SDS011;31328;51.402;0.016;2023-05-07T05:52:32;13.32;;;7.22;;
24901;SDS011;31328;51.402;0.016;2023-05-07T05:54:58;14.13;;;7.90;;
24901;SDS011;31328;51.402;0.016;2023-05-07T05:57:25;10.50;;;6.68;;
24901;SDS011;31328;51.402;0.016;2023-05-07T05:59:52;10.15;;;6.28;;
24901;SDS011;31328;51.402;0.016;2023-05-07T06:02:18;10.13;;;6.20;;
24901;SDS011;31328;51.402;0.016;2023-05-07T06:04:45;10.60;;;5.88;;
24901;SDS011;31328;51.402;0.016;2023-05-07T06:07:16;12.32;;;6.47;;
24901;SDS011;31328;51.402;0.016;2023-05-07T06:09:42;11.90;;;7.18;;
24901;SDS011;31328;51.402;0.016;2023-05-07T06:12:09;10.23;;;6.75;;
24901;SDS011;31328;51.402;0.016;2023-05-07T06:14:36;10.10;;;6.55;;
24901;SDS011;31328;51.402;0.016;2023-05-07T06:17:02;10.65;;;5.97;;
24901;SDS011;31328;51.402;0.016;2023-05-07T06:19:29;10.00;;;5.80;;
24901;SDS011;31328;51.402;0.016;2023-05-07T06:21:57;8.55;;;5.25;;
24901;SDS011;31328;51.402;0.016;2023-05-07T06:24:26;8.07;;;4.93;;
24901;SDS011;31328;51.402;0.016;2023-05-07T06:26:53;9.15;;;5.10;;
24901;SDS011;31328;51.402;0.016;2023-05-07T06:29:20;7.78;;;4.53;;
24901;SDS011;31328;51.402;0.016;2023-05-07T06:31:46;8.55;;;5.55;;
24901;SDS011;31328;51.402;0.016;2023-05-07T06:34:13;9.88;;;4.65;;
24901;SDS011;31328;51.402;0.016;2023-05-07T06:36:40;9.32;;;4.47;;
24901;SDS011;31328;51.402;0.016;2023-05-07T06:39:19;7.25;;;4.55;;
24901;SDS011;31328;51.402;0.016;2023-05-07T06:41:46;11.85;;;5.55;;
24901;SDS011;31328;51.402;0.016;2023-05-07T06:44:22;9.35;;;4.75;;
24901;SDS011;31328;51.402;0.016;2023-05-07T06:46:58;9.35;;;5.32;;
24901;SDS011;31328;51.402;0.016;2023-05-07T06:49:25;11.45;;;5.70;;
24901;SDS011;31328;51.402;0.016;2023-05-07T06:51:51;8.63;;;5.30;;
24901;SDS011;31328;51.402;0.016;2023-05-07T06:54:18;9.02;;;5.70;;
24901;SDS011;31328;51.402;0.016;2023-05-07T06:56:45;9.45;;;5.55;;
24901;SDS011;31328;51.402;0.016;2023-05-07T06:59:12;9.77;;;5.95;;
24901;SDS011;31328;51.402;0.016;2023-05-07T07:01:40;10.82;;;5.85;;
24901;SDS011;31328;51.402;0.016;2023-05-07T07:04:08;9.07;;;5.93;;
24901;SDS011;31328;51.402;0.016;2023-05-07T07:06:35;10.10;;;6.10;;
24901;SDS011;31328;51.402;0.016;2023-05-07T07:09:06;8.95;;;6.13;;
24901;SDS011;31328;51.402;0.016;2023-05-07T07:11:33;9.10;;;6.13;;
24901;SDS011;31328;51.402;0.016;2023-05-07T07:14:00;11.05;;;6.53;;
24901;SDS011;31328;51.402;0.016;2023-05-07T07:16:28;9.50;;;5.95;;
24901;SDS011;31328;51.402;0.016;2023-05-07T07:18:54;10.15;;;6.18;;
24901;SDS011;31328;51.402;0.016;2023-05-07T07:21:21;8.82;;;6.10;;
24901;SDS011;31328;51.402;0.016;2023-05-07T07:23:47;9.63;;;6.22;;
24901;SDS011;31328;51.402;0.016;2023-05-07T07:26:14;9.95;;;5.47;;
24901;SDS011;31328;51.402;0.016;2023-05-07T07:28:42;10.40;;;6.47;;
24901;SDS011;31328;51.402;0.016;2023-05-07T07:31:10;9.25;;;5.97;;
24901;SDS011;31328;51.402;0.016;2023-05-07T07:33:37;8.57;;;5.95;;
24901;SDS011;31328;51.402;0.016;2023-05-07T07:36:05;10.55;;;6.03;;
24901;SDS011;31328;51.402;0.016;2023-05-07T07:38:32;10.68;;;6.72;;
24901;SDS011;31328;51.402;0.016;2023-05-07T07:40:59;9.32;;;6.78;;
24901;SDS011;31328;51.402;0.016;2023-05-07T07:43:27;10.18;;;7.00;;
24901;SDS011;31328;51.402;0.016;2023-05-07T07:45:54;10.55;;;7.15;;
24901;SDS011;31328;51.402;0.016;2023-05-07T07:48:21;10.10;;;6.95;;
24901;SDS011;31328;51.402;0.016;2023-05-07T07:50:49;11.65;;;7.75;;
24901;SDS011;31328;51.402;0.016;2023-05-07T07:53:17;10.75;;;7.55;;
24901;SDS011;31328;51.402;0.016;2023-05-07T07:55:44;10.55;;;7.10;;
24901;SDS011;31328;51.402;0.016;2023-05-07T07:58:14;12.48;;;8.13;;
24901;SDS011;31328;51.402;0.016;2023-05-07T08:00:41;11.55;;;8.02;;
24901;SDS011;31328;51.402;0.016;2023-05-07T08:03:10;11.02;;;7.20;;
24901;SDS011;31328;51.402;0.016;2023-05-07T08:05:40;10.50;;;7.57;;
24901;SDS011;31328;51.402;0.016;2023-05-07T08:08:07;11.65;;;7.32;;
24901;SDS011;31328;51.402;0.016;2023-05-07T08:10:37;11.75;;;6.93;;
24901;SDS011;31328;51.402;0.016;2023-05-07T08:13:10;10.00;;;7.07;;
24901;SDS011;31328;51.402;0.016;2023-05-07T08:15:39;9.25;;;6.68;;
24901;SDS011;31328;51.402;0.016;2023-05-07T08:18:05;13.07;;;7.93;;
24901;SDS011;31328;51.402;0.016;2023-05-07T08:20:33;11.65;;;7.20;;
24901;SDS011;31328;51.402;0.016;2023-05-07T08:23:03;11.65;;;7.43;;
24901;SDS011;31328;51.402;0.016;2023-05-07T08:25:30;10.60;;;7.30;;
24901;SDS011;31328;51.402;0.016;2023-05-07T08:27:56;11.60;;;6.72;;
24901;SDS011;31328;51.402;0.016;2023-05-07T08:30:23;9.98;;;6.28;;
24901;SDS011;31328;51.402;0.016;2023-05-07T08:32:51;8.18;;;5.75;;
24901;SDS011;31328;51.402;0.016;2023-05-07T08:35:17;9.68;;;5.60;;
24901;SDS011;31328;51.402;0.016;2023-05-07T08:37:44;10.10;;;6.55;;
24901;SDS011;31328;51.402;0.016;2023-05-07T08:40:10;9.98;;;6.25;;
24901;SDS011;31328;51.402;0.016;2023-05-07T08:42:37;8.93;;;6.20;;
24901;SDS011;31328;51.402;0.016;2023-05-07T08:45:09;8.50;;;5.45;;
24901;SDS011;31328;51.402;0.016;2023-05-07T08:47:43;8.88;;;5.88;;
24901;SDS011;31328;51.402;0.016;2023-05-07T08:50:11;6.13;;;4.93;;
24901;SDS011;31328;51.402;0.016;2023-05-07T08:52:39;9.45;;;5.57;;
24901;SDS011;31328;51.402;0.016;2023-05-07T08:55:07;9.05;;;4.85;;
24901;SDS011;31328;51.402;0.016;2023-05-07T08:57:34;5.63;;;4.25;;
24901;SDS011;31328;51.402;0.016;2023-05-07T09:00:03;4.85;;;3.50;;
24901;SDS011;31328;51.402;0.016;2023-05-07T09:02:35;7.03;;;4.35;;
24901;SDS011;31328;51.402;0.016;2023-05-07T09:05:02;6.03;;;4.20;;
24901;SDS011;31328;51.402;0.016;2023-05-07T09:07:29;5.40;;;4.28;;
24901;SDS011;31328;51.402;0.016;2023-05-07T09:09:57;4.95;;;3.30;;
24901;SDS011;31328;51.402;0.016;2023-05-07T09:12:25;4.20;;;3.40;;
24901;SDS011;31328;51.402;0.016;2023-05-07T09:14:53;4.68;;;3.40;;
24901;SDS011;31328;51.402;0.016;2023-05-07T09:17:19;6.03;;;4.18;;
24901;SDS011;31328;51.402;0.016;2023-05-07T09:19:46;6.15;;;4.40;;
24901;SDS011;31328;51.402;0.016;2023-05-07T09:22:14;6.65;;;4.78;;
24901;SDS011;31328;51.402;0.016;2023-05-07T09:24:54;6.15;;;4.32;;
24901;SDS011;31328;51.402;0.016;2023-05-07T09:27:25;5.32;;;3.92;;
24901;SDS011;31328;51.402;0.016;2023-05-07T09:29:52;4.75;;;3.38;;
24901;SDS011;31328;51.402;0.016;2023-05-07T09:32:19;4.43;;;3.20;;
24901;SDS011;31328;51.402;0.016;2023-05-07T09:34:46;4.40;;;3.55;;
24901;SDS011;31328;51.402;0.016;2023-05-07T09:37:14;4.47;;;3.47;;
24901;SDS011;31328;51.402;0.016;2023-05-07T09:39:45;3.80;;;3.00;;
24901;SDS011;31328;51.402;0.016;2023-05-07T09:42:15;5.50;;;3.88;;
24901;SDS011;31328;51.402;0.016;2023-05-07T09:44:43;3.50;;;2.95;;
24901;SDS011;31328;51.402;0.016;2023-05-07T09:47:22;5.53;;;3.60;;
24901;SDS011;31328;51.402;0.016;2023-05-07T09:49:54;5.00;;;3.13;;
24901;SDS011;31328;51.402;0.016;2023-05-07T09:52:23;3.40;;;2.72;;
24901;SDS011;31328;51.402;0.016;2023-05-07T09:54:55;4.70;;;3.42;;
24901;SDS011;31328;51.402;0.016;2023-05-07T09:57:27;6.00;;;3.28;;
24901;SDS011;31328;51.402;0.016;2023-05-07T09:59:59;4.90;;;3.22;;
24901;SDS011;31328;51.402;0.016;2023-05-07T10:02:33;4.53;;;3.60;;
24901;SDS011;31328;51.402;0.016;2023-05-07T10:05:02;4.07;;;3.10;;
24901;SDS011;31328;51.402;0.016;2023-05-07T10:07:32;3.25;;;2.70;;
24901;SDS011;31328;51.402;0.016;2023-05-07T10:10:05;4.05;;;2.85;;
24901;SDS011;31328;51.402;0.016;2023-05-07T10:12:36;4.35;;;3.08;;
24901;SDS011;31328;51.402;0.016;2023-05-07T10:15:11;2.97;;;2.70;;
24901;SDS011;31328;51.402;0.016;2023-05-07T10:17:40;3.40;;;2.50;;
24901;SDS011;31328;51.402;0.016;2023-05-07T10:20:09;4.53;;;2.97;;
24901;SDS011;31328;51.402;0.016;2023-05-07T10:22:38;3.65;;;2.60;;
24901;SDS011;31328;51.402;0.016;2023-05-07T10:25:09;4.35;;;2.80;;
24901;SDS011;31328;51.402;0.016;2023-05-07T10:27:45;3.63;;;3.03;;
24901;SDS011;31328;51.402;0.016;2023-05-07T10:30:24;3.42;;;2.88;;
24901;SDS011;31328;51.402;0.016;2023-05-07T10:33:16;5.35;;;3.33;;
24901;SDS011;31328;51.402;0.016;2023-05-07T10:35:47;5.47;;;3.83;;
24901;SDS011;31328;51.402;0.016;2023-05-07T10:38:15;5.22;;;3.85;;
24901;SDS011;31328;51.402;0.016;2023-05-07T10:40:44;4.15;;;3.75;;
24901;SDS011;31328;51.402;0.016;2023-05-07T10:43:10;5.30;;;3.80;;
24901;SDS011;31328;51.402;0.016;2023-05-07T10:51:39;3.70;;;3.30;;
24901;SDS011;31328;51.402;0.016;2023-05-07T10:54:26;4.97;;;3.97;;
24901;SDS011;31328;51.402;0.016;2023-05-07T10:56:58;3.58;;;2.80;;
24901;SDS011;31328;51.402;0.016;2023-05-07T10:59:54;3.83;;;3.45;;
24901;SDS011;31328;51.402;0.016;2023-05-07T11:05:32;3.58;;;3.03;;
24901;SDS011;31328;51.402;0.016;2023-05-07T11:08:15;4.13;;;3.15;;
24901;SDS011;31328;51.402;0.016;2023-05-07T11:13:45;4.03;;;3.60;;
24901;SDS011;31328;51.402;0.016;2023-05-07T11:16:24;3.92;;;3.42;;
24901;SDS011;31328;51.402;0.016;2023-05-07T11:19:01;3.90;;;3.50;;
24901;SDS011;31328;51.402;0.016;2023-05-07T11:21:35;3.42;;;3.00;;
24901;SDS011;31328;51.402;0.016;2023-05-07T11:24:17;5.25;;;3.45;;
24901;SDS011;31328;51.402;0.016;2023-05-07T11:26:52;4.10;;;3.30;;
24901;SDS011;31328;51.402;0.016;2023-05-07T11:29:21;4.88;;;3.63;;
24901;SDS011;31328;51.402;0.016;2023-05-07T11:31:50;3.50;;;3.15;;
24901;SDS011;31328;51.402;0.016;2023-05-07T11:34:22;3.55;;;3.10;;
24901;SDS011;31328;51.402;0.016;2023-05-07T11:36:51;5.28;;;3.00;;
24901;SDS011;31328;51.402;0.016;2023-05-07T11:39:31;3.92;;;2.80;;
24901;SDS011;31328;51.402;0.016;2023-05-07T11:42:01;5.00;;;3.25;;
24901;SDS011;31328;51.402;0.016;2023-05-07T11:44:44;3.10;;;2.78;;
24901;SDS011;31328;51.402;0.016;2023-05-07T11:47:16;3.78;;;2.78;;
24901;SDS011;31328;51.402;0.016;2023-05-07T11:49:46;3.13;;;2.83;;
24901;SDS011;31328;51.402;0.016;2023-05-07T11:52:17;3.53;;;2.65;;
24901;SDS011;31328;51.402;0.016;2023-05-07T11:54:51;4.15;;;3.50;;
24901;SDS011;31328;51.402;0.016;2023-05-07T11:57:18;3.30;;;3.00;;
24901;SDS011;31328;51.402;0.016;2023-05-07T11:59:45;3.38;;;2.90;;
24901;SDS011;31328;51.402;0.016;2023-05-07T12:02:15;5.05;;;3.75;;
24901;SDS011;31328;51.402;0.016;2023-05-07T12:04:42;4.22;;;3.83;;
24901;SDS011;31328;51.402;0.016;2023-05-07T12:07:15;4.18;;;2.92;;
24901;SDS011;31328;51.402;0.016;2023-05-07T12:09:42;4.83;;;2.90;;
24901;SDS011;31328;51.402;0.016;2023-05-07T12:12:09;2.92;;;2.30;;
24901;SDS011;31328;51.402;0.016;2023-05-07T12:14:39;4.15;;;2.67;;
24901;SDS011;31328;51.402;0.016;2023-05-07T12:17:07;3.03;;;2.65;;
24901;SDS011;31328;51.402;0.016;2023-05-07T12:19:34;2.85;;;2.55;;
24901;SDS011;31328;51.402;0.016;2023-05-07T12:22:02;4.13;;;2.90;;
24901;SDS011;31328;51.402;0.016;2023-05-07T12:24:29;4.00;;;3.03;;
24901;SDS011;31328;51.402;0.016;2023-05-07T12:27:07;3.25;;;2.88;;
24901;SDS011;31328;51.402;0.016;2023-05-07T12:29:35;3.95;;;2.80;;
24901;SDS011;31328;51.402;0.016;2023-05-07T12:32:01;4.22;;;3.70;;
24901;SDS011;31328;51.402;0.016;2023-05-07T12:34:27;4.47;;;3.42;;
24901;SDS011;31328;51.402;0.016;2023-05-07T12:36:54;5.75;;;3.47;;
24901;SDS011;31328;51.402;0.016;2023-05-07T12:39:21;5.15;;;3.28;;
24901;SDS011;31328;51.402;0.016;2023-05-07T12:41:54;3.40;;;2.88;;
24901;SDS011;31328;51.402;0.016;2023-05-07T12:44:22;4.28;;;3.20;;
24901;SDS011;31328;51.402;0.016;2023-05-07T12:46:50;3.47;;;3.10;;
24901;SDS011;31328;51.402;0.016;2023-05-07T12:49:17;3.92;;;3.38;;
24901;SDS011;31328;51.402;0.016;2023-05-07T12:51:49;5.18;;;4.63;;
24901;SDS011;31328;51.402;0.016;2023-05-07T12:54:31;6.35;;;4.05;;
24901;SDS011;31328;51.402;0.016;2023-05-07T12:57:05;4.10;;;3.70;;
24901;SDS011;31328;51.402;0.016;2023-05-07T12:59:36;3.65;;;3.30;;
24901;SDS011;31328;51.402;0.016;2023-05-07T13:02:04;4.40;;;4.00;;
24901;SDS011;31328;51.402;0.016;2023-05-07T13:04:30;3.83;;;3.42;;
24901;SDS011;31328;51.402;0.016;2023-05-07T13:06:57;4.20;;;3.80;;
24901;SDS011;31328;51.402;0.016;2023-05-07T13:09:25;6.00;;;2.78;;
24901;SDS011;31328;51.402;0.016;2023-05-07T13:11:51;4.28;;;3.50;;
24901;SDS011;31328;51.402;0.016;2023-05-07T13:14:18;4.65;;;3.28;;
24901;SDS011;31328;51.402;0.016;2023-05-07T13:16:49;3.78;;;3.17;;
24901;SDS011;31328;51.402;0.016;2023-05-07T13:19:15;3.53;;;2.90;;
24901;SDS011;31328;51.402;0.016;2023-05-07T13:21:43;3.45;;;3.13;;
24901;SDS011;31328;51.402;0.016;2023-05-07T13:24:09;4.13;;;3.20;;
24901;SDS011;31328;51.402;0.016;2023-05-07T13:26:35;3.38;;;3.08;;
24901;SDS011;31328;51.402;0.016;2023-05-07T13:29:01;3.60;;;3.05;;
24901;SDS011;31328;51.402;0.016;2023-05-07T13:31:28;3.83;;;2.90;;
24901;SDS011;31328;51.402;0.016;2023-05-07T13:33:54;3.28;;;2.97;;
24901;SDS011;31328;51.402;0.016;2023-05-07T13:36:21;5.32;;;4.43;;
24901;SDS011;31328;51.402;0.016;2023-05-07T13:38:48;4.68;;;3.42;;
24901;SDS011;31328;51.402;0.016;2023-05-07T13:41:14;4.32;;;2.80;;
24901;SDS011;31328;51.402;0.016;2023-05-07T13:43:40;3.05;;;2.70;;
24901;SDS011;31328;51.402;0.016;2023-05-07T13:46:07;3.42;;;2.85;;
24901;SDS011;31328;51.402;0.016;2023-05-07T13:48:33;3.53;;;3.20;;
24901;SDS011;31328;51.402;0.016;2023-05-07T13:51:00;2.65;;;2.40;;
24901;SDS011;31328;51.402;0.016;2023-05-07T13:53:26;3.45;;;2.50;;
24901;SDS011;31328;51.402;0.016;2023-05-07T13:55:52;4.53;;;2.70;;
24901;SDS011;31328;51.402;0.016;2023-05-07T13:58:19;2.97;;;2.58;;
24901;SDS011;31328;51.402;0.016;2023-05-07T14:00:45;3.78;;;2.30;;
24901;SDS011;31328;51.402;0.016;2023-05-07T14:03:11;2.60;;;2.40;;
24901;SDS011;31328;51.402;0.016;2023-05-07T14:05:38;2.97;;;2.58;;
24901;SDS011;31328;51.402;0.016;2023-05-07T14:08:04;3.15;;;2.95;;
24901;SDS011;31328;51.402;0.016;2023-05-07T14:10:30;3.65;;;3.05;;
24901;SDS011;31328;51.402;0.016;2023-05-07T14:12:57;3.22;;;2.70;;
24901;SDS011;31328;51.402;0.016;2023-05-07T14:15:23;5.30;;;2.88;;
24901;SDS011;31328;51.402;0.016;2023-05-07T14:17:50;3.05;;;2.67;;
24901;SDS011;31328;51.402;0.016;2023-05-07T14:20:16;8.23;;;4.65;;
24901;SDS011;31328;51.402;0.016;2023-05-07T14:22:42;4.55;;;2.90;;
24901;SDS011;31328;51.402;0.016;2023-05-07T14:25:09;3.08;;;2.10;;
24901;SDS011;31328;51.402;0.016;2023-05-07T14:27:35;2.55;;;2.00;;
24901;SDS011;31328;51.402;0.016;2023-05-07T14:30:01;8.40;;;3.15;;
24901;SDS011;31328;51.402;0.016;2023-05-07T14:32:30;2.15;;;1.95;;
24901;SDS011;31328;51.402;0.016;2023-05-07T14:34:56;2.25;;;1.95;;
24901;SDS011;31328;51.402;0.016;2023-05-07T14:37:23;2.78;;;2.50;;
24901;SDS011;31328;51.402;0.016;2023-05-07T14:39:49;2.05;;;1.85;;
24901;SDS011;31328;51.402;0.016;2023-05-07T14:42:16;2.00;;;1.80;;
24901;SDS011;31328;51.402;0.016;2023-05-07T14:44:43;2.42;;;1.60;;
24901;SDS011;31328;51.402;0.016;2023-05-07T14:47:10;2.63;;;2.15;;
24901;SDS011;31328;51.402;0.016;2023-05-07T14:49:37;1.98;;;1.77;;
24901;SDS011;31328;51.402;0.016;2023-05-07T14:52:03;3.40;;;1.90;;
24901;SDS011;31328;51.402;0.016;2023-05-07T14:54:33;1.73;;;1.60;;
24901;SDS011;31328;51.402;0.016;2023-05-07T14:57:01;5.82;;;3.78;;
24901;SDS011;31328;51.402;0.016;2023-05-07T14:59:27;9.27;;;2.30;;
24901;SDS011;31328;51.402;0.016;2023-05-07T15:01:54;2.05;;;1.95;;
24901;SDS011;31328;51.402;0.016;2023-05-07T15:04:20;3.08;;;1.90;;